createdAt,value
2019-05-02T00:01:47.415Z,99114.00
2019-05-02T00:03:52.592Z,99117.00
2019-05-02T00:05:58.141Z,99112.00
2019-05-02T00:08:03.520Z,99111.00
2019-05-02T00:10:10.743Z,99111.00
2019-05-02T00:12:18.606Z,99099.00
2019-05-02T00:14:24.694Z,99092.00
2019-05-02T00:16:30.602Z,99102.00
2019-05-02T00:18:39.086Z,99092.00
2019-05-02T00:20:44.713Z,99093.00
2019-05-02T00:22:52.175Z,99097.00
2019-05-02T00:24:57.414Z,99093.00
2019-05-02T00:27:03.201Z,99090.00
2019-05-02T00:29:08.407Z,99086.00
2019-05-02T00:31:13.519Z,99086.00
2019-05-02T00:33:18.951Z,99088.00
2019-05-02T00:35:24.421Z,99080.00
2019-05-02T00:37:29.773Z,99082.00
2019-05-02T00:39:35.201Z,99084.00
2019-05-02T00:41:40.684Z,99077.00
2019-05-02T00:43:45.889Z,99079.00
2019-05-02T00:45:55.025Z,99081.00
2019-05-02T00:48:04.129Z,99081.00
2019-05-02T00:50:11.334Z,99072.00
2019-05-02T00:52:17.397Z,99074.00
2019-05-02T00:54:24.270Z,99072.00
2019-05-02T00:56:29.759Z,99073.00
2019-05-02T00:58:35.438Z,99070.00
2019-05-02T01:01:00.402Z,99059.00
2019-05-02T01:03:11.133Z,99071.00
2019-05-02T01:05:20.352Z,99061.00
2019-05-02T01:07:26.986Z,99064.00
2019-05-02T01:09:35.205Z,99058.00
2019-05-02T01:11:40.699Z,99058.00
2019-05-02T01:13:50.391Z,99055.00
2019-05-02T01:15:53.071Z,99052.00
2019-05-02T01:18:01.032Z,99054.00
2019-05-02T01:20:06.253Z,99059.00
2019-05-02T01:22:15.925Z,99053.00
2019-05-02T01:24:18.576Z,99050.00
2019-05-02T01:26:29.300Z,99048.00
2019-05-02T01:29:06.669Z,99052.00
2019-05-02T01:31:20.291Z,99040.00
2019-05-02T01:33:36.916Z,99053.00
2019-05-02T01:35:47.748Z,99043.00
2019-05-02T01:38:10.177Z,99039.00
2019-05-02T01:40:17.811Z,99036.00
2019-05-02T01:42:22.642Z,99037.00
2019-05-02T01:44:31.032Z,99039.00
2019-05-02T01:46:36.097Z,99038.00
2019-05-02T01:48:45.591Z,99033.00
2019-05-02T01:50:48.596Z,99032.00
2019-05-02T01:52:58.411Z,99029.00
2019-05-02T01:55:00.520Z,99020.00
2019-05-02T01:57:08.691Z,99026.00
2019-05-02T01:59:13.506Z,99032.00
2019-05-02T02:01:23.201Z,99030.00
2019-05-02T02:03:28.267Z,99024.00
2019-05-02T02:05:33.807Z,99024.00
2019-05-02T02:07:38.984Z,99016.00
2019-05-02T02:09:45.790Z,99019.00
2019-05-02T02:11:51.055Z,98983.00
2019-05-02T02:13:56.185Z,99017.00
2019-05-02T02:16:04.538Z,99014.00
2019-05-02T02:18:08.254Z,99022.00
2019-05-02T02:20:15.739Z,99013.00
2019-05-02T02:22:51.897Z,99011.00
2019-05-02T02:25:32.155Z,99022.00
2019-05-02T02:27:36.154Z,99018.00
2019-05-02T02:29:43.984Z,99012.00
2019-05-02T02:31:49.294Z,99019.00
2019-05-02T02:33:54.764Z,99023.00
2019-05-02T02:36:00.161Z,99020.00
2019-05-02T02:38:05.474Z,99007.00
2019-05-02T02:40:10.993Z,99012.00
2019-05-02T02:42:16.105Z,99012.00
2019-05-02T02:44:39.912Z,99022.00
2019-05-02T02:46:46.042Z,99014.00
2019-05-02T02:48:51.211Z,99011.00
2019-05-02T02:50:56.935Z,99005.00
2019-05-02T02:53:02.125Z,99007.00
2019-05-02T02:55:07.477Z,99004.00
2019-05-02T02:57:20.878Z,99004.00
2019-05-02T02:59:26.223Z,98995.00
2019-05-02T03:01:29.450Z,98995.00
2019-05-02T03:03:35.257Z,98991.00
2019-05-02T03:05:40.885Z,98988.00
2019-05-02T03:07:46.647Z,98998.00
2019-05-02T03:09:51.826Z,98990.00
2019-05-02T03:12:15.265Z,99001.00
2019-05-02T03:14:25.372Z,98999.00
2019-05-02T03:16:31.625Z,98990.00
2019-05-02T03:18:40.528Z,98991.00
2019-05-02T03:20:44.058Z,98994.00
2019-05-02T03:22:49.478Z,98985.00
2019-05-02T03:24:55.028Z,98988.00
2019-05-02T03:27:00.851Z,98992.00
2019-05-02T03:29:06.132Z,98981.00
2019-05-02T03:31:24.402Z,98986.00
2019-05-02T03:33:19.085Z,98988.00
2019-05-02T03:35:40.842Z,98985.00
2019-05-02T03:37:31.770Z,98990.00
2019-05-02T03:39:38.557Z,98988.00
2019-05-02T03:41:44.287Z,98986.00
2019-05-02T03:43:50.419Z,98985.00
2019-05-02T03:45:55.793Z,98981.00
2019-05-02T03:48:02.394Z,98981.00
2019-05-02T03:50:09.389Z,98982.00
2019-05-02T03:52:15.387Z,98984.00
2019-05-02T03:54:20.774Z,98970.00
2019-05-02T03:56:26.572Z,98983.00
2019-05-02T03:58:32.913Z,98985.00
2019-05-02T04:00:38.015Z,98978.00
2019-05-02T04:02:44.132Z,98966.00
2019-05-02T04:04:54.084Z,98964.00
2019-05-02T04:07:01.175Z,98971.00
2019-05-02T04:09:08.219Z,98966.00
2019-05-02T04:11:38.348Z,98966.00
2019-05-02T04:13:38.195Z,98968.00
2019-05-02T04:15:43.489Z,98967.00
2019-05-02T04:17:49.157Z,98964.00
2019-05-02T04:19:54.362Z,98969.00
2019-05-02T04:22:01.640Z,98970.00
2019-05-02T04:24:13.337Z,98967.00
2019-05-02T04:26:16.887Z,98972.00
2019-05-02T04:28:24.366Z,98978.00
2019-05-02T04:30:29.805Z,98979.00
2019-05-02T04:32:35.294Z,98977.00
2019-05-02T04:34:40.457Z,98969.00
2019-05-02T04:36:46.828Z,98972.00
2019-05-02T04:38:52.979Z,98971.00
2019-05-02T04:40:59.161Z,98966.00
2019-05-02T04:43:08.229Z,98968.00
2019-05-02T04:45:25.241Z,98967.00
2019-05-02T04:47:21.936Z,98964.00
2019-05-02T04:49:29.777Z,98964.00
2019-05-02T04:51:33.783Z,98964.00
2019-05-02T04:53:44.331Z,98962.00
2019-05-02T04:55:52.488Z,98957.00
2019-05-02T04:57:52.952Z,98966.00
2019-05-02T05:00:06.386Z,98955.00
2019-05-02T05:02:08.713Z,98964.00
2019-05-02T05:04:13.039Z,98960.00
2019-05-02T05:06:19.016Z,98949.00
2019-05-02T05:08:26.512Z,98963.00
2019-05-02T05:10:40.165Z,98951.00
2019-05-02T05:12:41.810Z,98948.00
2019-05-02T05:14:47.462Z,98950.00
2019-05-02T05:16:55.616Z,98958.00
2019-05-02T05:19:00.099Z,98943.00
2019-05-02T05:21:10.315Z,98963.00
2019-05-02T05:23:18.227Z,98955.00
2019-05-02T05:25:27.867Z,98955.00
2019-05-02T05:27:32.879Z,98951.00
2019-05-02T05:29:38.069Z,98961.00
2019-05-02T05:31:43.198Z,98967.00
2019-05-02T05:33:49.017Z,98954.00
2019-05-02T05:35:54.505Z,98958.00
2019-05-02T05:37:59.942Z,98967.00
2019-05-02T05:40:05.496Z,98967.00
2019-05-02T05:42:10.848Z,98958.00
2019-05-02T05:44:18.072Z,98959.00
2019-05-02T05:46:23.302Z,98958.00
2019-05-02T05:48:32.138Z,98963.00
2019-05-02T05:50:37.684Z,98955.00
2019-05-02T05:52:43.110Z,98954.00
2019-05-02T05:54:48.182Z,98950.00
2019-05-02T05:56:53.285Z,98955.00
2019-05-02T05:58:59.231Z,98958.00
2019-05-02T06:01:09.312Z,98951.00
2019-05-02T06:03:14.165Z,98962.00
2019-05-02T06:05:18.337Z,98958.00
2019-05-02T06:07:23.902Z,98957.00
2019-05-02T06:09:31.256Z,98955.00
2019-05-02T06:11:36.911Z,98957.00
2019-05-02T06:13:48.610Z,98953.00
2019-05-02T06:16:01.675Z,98963.00
2019-05-02T06:17:59.972Z,98949.00
2019-05-02T06:20:04.586Z,98953.00
2019-05-02T06:22:09.810Z,98952.00
2019-05-02T06:24:17.078Z,98961.00
2019-05-02T06:26:22.190Z,98951.00
2019-05-02T06:28:27.797Z,98943.00
2019-05-02T06:30:33.023Z,98945.00
2019-05-02T06:32:38.087Z,98942.00
2019-05-02T06:34:46.507Z,98946.00
2019-05-02T06:36:50.447Z,98944.00
2019-05-02T06:38:56.614Z,98946.00
2019-05-02T06:41:02.493Z,98943.00
2019-05-02T06:43:09.872Z,98944.00
2019-05-02T06:45:15.370Z,98947.00
2019-05-02T06:47:20.952Z,98942.00
2019-05-02T06:49:26.157Z,98933.00
2019-05-02T06:51:31.345Z,98932.00
2019-05-02T06:53:41.448Z,98934.00
2019-05-02T06:55:44.061Z,98927.00
2019-05-02T06:57:51.736Z,98928.00
2019-05-02T06:59:56.571Z,98930.00
2019-05-02T07:02:01.993Z,98932.00
2019-05-02T07:04:07.192Z,98918.00
2019-05-02T07:06:12.401Z,98928.00
2019-05-02T07:08:17.947Z,98924.00
2019-05-02T07:10:25.433Z,98923.00
2019-05-02T07:12:30.491Z,98920.00
2019-05-02T07:14:36.534Z,98925.00
2019-05-02T07:16:54.569Z,98919.00
2019-05-02T07:19:03.905Z,98934.00
2019-05-02T07:21:12.224Z,98930.00
2019-05-02T07:23:18.319Z,98933.00
2019-05-02T07:25:23.539Z,98925.00
2019-05-02T07:27:33.619Z,98931.00
2019-05-02T07:29:35.615Z,98935.00
2019-05-02T07:31:42.994Z,98926.00
2019-05-02T07:33:48.005Z,98936.00
2019-05-02T07:35:55.257Z,98937.00
2019-05-02T07:38:01.054Z,98925.00
2019-05-02T07:40:07.697Z,98926.00
2019-05-02T07:42:14.895Z,98926.00
2019-05-02T07:44:20.375Z,98928.00
2019-05-02T07:46:25.561Z,98922.00
2019-05-02T07:48:31.375Z,98930.00
2019-05-02T07:50:36.571Z,98925.00
2019-05-02T07:52:42.118Z,98934.00
2019-05-02T07:54:47.249Z,98932.00
2019-05-02T07:56:53.466Z,98929.00
2019-05-02T07:58:59.190Z,98919.00
2019-05-02T08:01:08.176Z,98918.00
2019-05-02T08:03:12.287Z,98915.00
2019-05-02T08:05:21.513Z,98917.00
2019-05-02T08:07:29.970Z,98911.00
2019-05-02T08:09:32.608Z,98913.00
2019-05-02T08:11:38.557Z,98918.00
2019-05-02T08:13:44.439Z,98921.00
2019-05-02T08:15:50.783Z,98924.00
2019-05-02T08:17:56.563Z,98925.00
2019-05-02T08:20:04.764Z,98930.00
2019-05-02T08:22:13.298Z,98927.00
2019-05-02T08:24:16.188Z,98932.00
2019-05-02T08:26:23.380Z,98933.00
2019-05-02T08:28:33.584Z,98930.00
2019-05-02T08:30:42.181Z,98921.00
2019-05-02T08:32:47.295Z,98931.00
2019-05-02T08:34:53.519Z,98935.00
2019-05-02T08:37:03.018Z,98937.00
2019-05-02T08:39:07.412Z,98931.00
2019-05-02T08:41:12.532Z,98937.00
2019-05-02T08:43:17.650Z,98942.00
2019-05-02T08:45:22.836Z,98945.00
2019-05-02T08:47:30.225Z,98937.00
2019-05-02T08:49:35.541Z,98940.00
2019-05-02T08:51:41.599Z,98946.00
2019-05-02T08:53:47.046Z,98945.00
2019-05-02T08:55:52.252Z,98946.00
2019-05-02T08:57:57.753Z,98946.00
2019-05-02T09:00:02.953Z,98946.00
2019-05-02T09:02:08.151Z,98950.00
2019-05-02T09:04:13.962Z,98940.00
2019-05-02T09:06:22.485Z,98938.00
2019-05-02T09:08:27.340Z,98948.00
2019-05-02T09:10:32.453Z,98945.00
2019-05-02T09:12:42.307Z,98948.00
2019-05-02T09:14:44.848Z,98939.00
2019-05-02T09:16:52.377Z,98935.00
2019-05-02T09:18:58.079Z,98926.00
2019-05-02T09:21:03.288Z,98933.00
2019-05-02T09:23:08.951Z,98931.00
2019-05-02T09:25:15.232Z,98934.00
2019-05-02T09:27:22.485Z,98932.00
2019-05-02T09:29:27.733Z,98935.00
2019-05-02T09:31:36.807Z,98932.00
2019-05-02T09:33:42.442Z,98939.00
2019-05-02T09:35:47.591Z,98929.00
2019-05-02T09:37:54.321Z,98929.00
2019-05-02T09:39:59.513Z,98930.00
2019-05-02T09:42:06.605Z,98924.00
2019-05-02T09:44:14.611Z,98922.00
2019-05-02T09:46:19.596Z,98915.00
2019-05-02T09:48:26.765Z,98918.00
2019-05-02T09:50:34.360Z,98923.00
2019-05-02T09:52:40.810Z,98916.00
2019-05-02T09:54:46.210Z,98919.00
2019-05-02T09:56:52.386Z,98916.00
2019-05-02T09:59:04.825Z,98917.00
2019-05-02T10:01:13.824Z,98915.00
2019-05-02T10:03:19.244Z,98910.00
2019-05-02T10:05:24.756Z,98906.00
2019-05-02T10:07:29.912Z,98910.00
2019-05-02T10:09:35.572Z,98904.00
2019-05-02T10:11:41.791Z,98904.00
2019-05-02T10:13:47.196Z,98908.00
2019-05-02T10:15:52.886Z,98897.00
2019-05-02T10:18:08.718Z,98910.00
2019-05-02T10:20:06.247Z,98898.00
2019-05-02T10:22:12.287Z,98894.00
2019-05-02T10:24:17.787Z,98899.00
2019-05-02T10:26:24.584Z,98891.00
2019-05-02T10:28:31.706Z,98892.00
2019-05-02T10:30:37.499Z,98880.00
2019-05-02T10:32:47.187Z,98879.00
2019-05-02T10:34:55.096Z,98875.00
2019-05-02T10:36:58.925Z,98871.00
2019-05-02T10:39:07.381Z,98875.00
2019-05-02T10:41:12.736Z,98867.00
2019-05-02T10:43:17.930Z,98868.00
2019-05-02T10:45:23.150Z,98870.00
2019-05-02T10:47:28.262Z,98868.00
2019-05-02T10:49:53.772Z,98851.00
2019-05-02T10:51:58.975Z,98847.00
2019-05-02T10:54:08.009Z,98849.00
2019-05-02T10:56:13.107Z,98843.00
2019-05-02T10:58:18.568Z,98853.00
2019-05-02T11:00:32.365Z,98845.00
2019-05-02T11:02:55.291Z,98845.00
2019-05-02T11:05:05.101Z,98836.00
2019-05-02T11:07:11.970Z,98838.00
2019-05-02T11:09:22.522Z,98834.00
2019-05-02T11:11:24.285Z,98831.00
2019-05-02T11:13:45.856Z,98844.00
2019-05-02T11:16:13.123Z,98823.00
2019-05-02T11:18:38.784Z,98829.00
2019-05-02T11:20:29.500Z,98821.00
2019-05-02T11:22:35.029Z,98821.00
2019-05-02T11:24:41.778Z,98810.00
2019-05-02T11:26:47.504Z,98816.00
2019-05-02T11:28:53.078Z,98823.00
2019-05-02T11:31:02.654Z,98812.00
2019-05-02T11:33:05.333Z,98807.00
2019-05-02T11:35:12.195Z,98800.00
2019-05-02T11:37:18.265Z,98803.00
2019-05-02T11:39:31.093Z,98800.00
2019-05-02T11:41:31.726Z,98797.00
2019-05-02T11:43:42.448Z,98785.00
2019-05-02T11:45:45.683Z,98794.00
2019-05-02T11:47:54.436Z,98794.00
2019-05-02T11:49:58.382Z,98788.00
2019-05-02T11:52:04.704Z,98780.00
2019-05-02T11:54:10.233Z,98799.00
2019-05-02T11:56:15.743Z,98796.00
2019-05-02T11:58:23.004Z,98785.00
2019-05-02T12:00:28.447Z,98786.00
2019-05-02T12:02:58.146Z,98781.00
2019-05-02T12:05:02.511Z,98785.00
2019-05-02T12:07:08.371Z,98764.00
2019-05-02T12:09:14.156Z,98770.00
2019-05-02T12:11:19.495Z,98769.00
2019-05-02T12:13:24.979Z,98761.00
2019-05-02T12:15:32.307Z,98762.00
2019-05-02T12:17:37.602Z,98757.00
2019-05-02T12:19:43.046Z,98761.00
2019-05-02T12:21:55.866Z,98757.00
2019-05-02T12:24:02.253Z,98758.00
2019-05-02T12:26:07.964Z,98759.00
2019-05-02T12:28:13.298Z,98762.00
2019-05-02T12:30:18.511Z,98763.00
2019-05-02T12:32:23.955Z,98763.00
2019-05-02T12:34:29.222Z,98763.00
2019-05-02T12:36:34.400Z,98751.00
2019-05-02T12:38:39.588Z,98759.00
2019-05-02T12:40:44.723Z,98753.00
2019-05-02T12:42:52.461Z,98751.00
2019-05-02T12:44:57.189Z,98748.00
2019-05-02T12:47:02.742Z,98755.00
2019-05-02T12:49:21.819Z,98747.00
2019-05-02T12:51:15.827Z,98760.00
2019-05-02T12:53:21.928Z,98746.00
2019-05-02T12:55:27.594Z,98740.00
2019-05-02T12:57:32.734Z,98735.00
2019-05-02T12:59:37.856Z,98736.00
2019-05-02T13:01:43.474Z,98738.00
2019-05-02T13:03:54.932Z,98733.00
2019-05-02T13:06:00.116Z,98742.00
2019-05-02T13:08:05.334Z,98728.00
2019-05-02T13:10:12.546Z,98731.00
2019-05-02T13:12:23.435Z,98726.00
2019-05-02T13:14:31.901Z,98719.00
2019-05-02T13:16:37.355Z,98719.00
2019-05-02T13:18:42.536Z,98713.00
2019-05-02T13:20:48.959Z,98718.00
2019-05-02T13:23:10.503Z,98711.00
2019-05-02T13:25:17.965Z,98707.00
2019-05-02T13:27:23.504Z,98712.00
2019-05-02T13:29:28.827Z,98715.00
2019-05-02T13:31:52.362Z,98715.00
2019-05-02T13:34:06.601Z,98717.00
2019-05-02T13:36:42.971Z,98703.00
2019-05-02T13:38:48.089Z,98712.00
2019-05-02T13:40:53.584Z,98714.00
2019-05-02T13:42:59.094Z,98714.00
2019-05-02T13:45:12.613Z,98705.00
2019-05-02T13:47:21.855Z,98706.00
2019-05-02T13:49:27.065Z,98696.00
2019-05-02T13:51:32.575Z,98691.00
2019-05-02T13:53:43.288Z,98694.00
2019-05-02T13:55:54.705Z,98690.00
2019-05-02T13:58:02.153Z,98687.00
2019-05-02T14:00:08.277Z,98688.00
2019-05-02T14:02:38.556Z,98689.00
2019-05-02T14:04:43.768Z,98691.00
2019-05-02T14:06:49.222Z,98684.00
2019-05-02T14:08:59.880Z,98685.00
2019-05-02T14:11:23.053Z,98675.00
2019-05-02T14:13:29.004Z,98672.00
2019-05-02T14:15:38.000Z,98642.00
2019-05-02T14:17:43.478Z,98673.00
2019-05-02T14:19:48.661Z,98659.00
2019-05-02T14:21:54.138Z,98660.00
2019-05-02T14:24:01.588Z,98662.00
2019-05-02T14:26:08.240Z,98657.00
2019-05-02T14:28:13.471Z,98647.00
2019-05-02T14:30:35.712Z,98666.00
2019-05-02T14:32:27.505Z,98655.00
2019-05-02T14:34:48.585Z,98651.00
2019-05-02T14:36:58.924Z,98655.00
2019-05-02T14:39:02.284Z,98648.00
2019-05-02T14:41:12.980Z,98651.00
2019-05-02T14:43:38.099Z,98644.00
2019-05-02T14:45:44.350Z,98646.00
2019-05-02T14:47:57.577Z,98639.00
2019-05-02T14:50:02.280Z,98649.00
2019-05-02T14:52:07.029Z,98633.00
2019-05-02T14:54:12.146Z,98640.00
2019-05-02T14:56:22.942Z,98639.00
2019-05-02T14:58:28.006Z,98634.00
2019-05-02T15:00:39.520Z,98642.00
2019-05-02T15:02:49.035Z,98642.00
2019-05-02T15:04:52.271Z,98639.00
2019-05-02T15:06:57.665Z,98627.00
2019-05-02T15:09:03.750Z,98628.00
2019-05-02T15:11:09.313Z,98632.00
2019-05-02T15:13:14.667Z,98635.00
2019-05-02T15:15:20.235Z,98635.00
2019-05-02T15:17:28.108Z,98632.00
2019-05-02T15:19:33.070Z,98629.00
2019-05-02T15:21:46.947Z,98631.00
2019-05-02T15:23:54.457Z,98636.00
2019-05-02T15:25:58.379Z,98634.00
2019-05-02T15:28:04.260Z,98639.00
2019-05-02T15:30:10.649Z,98642.00
2019-05-02T15:32:25.581Z,98653.00
2019-05-02T15:34:48.287Z,98650.00
2019-05-02T15:36:53.469Z,98646.00
2019-05-02T15:41:09.527Z,98640.00
2019-05-02T15:43:12.657Z,98639.00
2019-05-02T15:45:20.341Z,98642.00
2019-05-02T15:47:25.436Z,98646.00
2019-05-02T15:49:36.547Z,98649.00
2019-05-02T15:51:43.720Z,98651.00
2019-05-02T15:54:08.465Z,98652.00
2019-05-02T15:56:19.433Z,98644.00
2019-05-02T15:58:26.056Z,98640.00
2019-05-02T16:00:32.107Z,98638.00
2019-05-02T16:02:42.107Z,98639.00
2019-05-02T16:04:47.307Z,98621.00
2019-05-02T16:06:52.948Z,98626.00
2019-05-02T16:08:58.829Z,98627.00
2019-05-02T16:11:08.871Z,98630.00
2019-05-02T16:13:16.875Z,98630.00
2019-05-02T16:15:22.215Z,98619.00
2019-05-02T16:17:29.244Z,98632.00
2019-05-02T16:19:38.600Z,98630.00
2019-05-02T16:21:52.034Z,98627.00
2019-05-02T16:24:15.331Z,98625.00
2019-05-02T16:26:22.547Z,98626.00
2019-05-02T16:28:28.020Z,98623.00
2019-05-02T16:30:36.928Z,98619.00
2019-05-02T16:32:44.261Z,98625.00
2019-05-02T16:34:55.139Z,98629.00
2019-05-02T16:37:13.497Z,98619.00
2019-05-02T16:39:17.401Z,98625.00
2019-05-02T16:41:23.203Z,98631.00
2019-05-02T16:43:29.968Z,98628.00
2019-05-02T16:45:35.602Z,98631.00
2019-05-02T16:47:42.276Z,98627.00
2019-05-02T16:49:53.347Z,98617.00
2019-05-02T16:51:57.467Z,98620.00
2019-05-02T16:54:05.058Z,98611.00
2019-05-02T16:56:11.477Z,98620.00
2019-05-02T16:58:16.823Z,98618.00
2019-05-02T17:00:25.081Z,98625.00
2019-05-02T17:02:32.277Z,98629.00
2019-05-02T17:04:37.361Z,98631.00
2019-05-02T17:06:42.858Z,98634.00
2019-05-02T17:08:58.672Z,98634.00
2019-05-02T17:11:15.371Z,98656.00
2019-05-02T17:13:18.457Z,98653.00
2019-05-02T17:15:31.451Z,98686.00
2019-05-02T17:17:34.964Z,98668.00
2019-05-02T17:19:40.434Z,98677.00
2019-05-02T17:21:55.954Z,98682.00
2019-05-02T17:23:54.343Z,98680.00
2019-05-02T17:26:01.553Z,98683.00
2019-05-02T17:28:10.569Z,98678.00
2019-05-02T17:30:15.126Z,98684.00
2019-05-02T17:32:20.255Z,98677.00
2019-05-02T17:34:30.700Z,98680.00
2019-05-02T17:36:33.081Z,98686.00
2019-05-02T17:38:38.563Z,98682.00
2019-05-02T17:40:44.359Z,98698.00
2019-05-02T17:42:49.551Z,98692.00
2019-05-02T17:44:59.327Z,98695.00
2019-05-02T17:47:01.968Z,98697.00
2019-05-02T17:49:07.732Z,98704.00
2019-05-02T17:51:33.885Z,98701.00
2019-05-02T17:53:41.214Z,98706.00
2019-05-02T17:55:44.861Z,98705.00
2019-05-02T17:57:51.609Z,98705.00
2019-05-02T17:59:57.274Z,98702.00
2019-05-02T18:02:06.553Z,98703.00
2019-05-02T18:04:12.634Z,98705.00
2019-05-02T18:06:17.387Z,98702.00
2019-05-02T18:08:23.012Z,98698.00
2019-05-02T18:10:28.520Z,98695.00
2019-05-02T18:12:33.646Z,98702.00
2019-05-02T18:14:39.143Z,98717.00
2019-05-02T18:16:47.237Z,98705.00
2019-05-02T18:18:52.248Z,98705.00
2019-05-02T18:20:57.446Z,98701.00
2019-05-02T18:23:05.752Z,98707.00
2019-05-02T18:25:11.657Z,98705.00
2019-05-02T18:27:16.707Z,98711.00
2019-05-02T18:29:22.523Z,98708.00
2019-05-02T18:31:27.968Z,98704.00
2019-05-02T18:33:36.051Z,98711.00
2019-05-02T18:35:45.193Z,98710.00
2019-05-02T18:37:47.713Z,98712.00
2019-05-02T18:39:55.935Z,98707.00
2019-05-02T18:42:00.481Z,98701.00
2019-05-02T18:44:05.778Z,98711.00
2019-05-02T18:46:12.758Z,98712.00
2019-05-02T18:48:18.461Z,98716.00
2019-05-02T18:50:44.286Z,98713.00
2019-05-02T18:52:48.089Z,98714.00
2019-05-02T18:54:54.297Z,98719.00
2019-05-02T18:56:59.870Z,98712.00
2019-05-02T18:59:05.085Z,98715.00
2019-05-02T19:01:14.012Z,98724.00
2019-05-02T19:03:17.505Z,98719.00
2019-05-02T19:05:22.993Z,98725.00
2019-05-02T19:07:33.050Z,98722.00
2019-05-02T19:09:34.888Z,98719.00
2019-05-02T19:11:40.352Z,98724.00
2019-05-02T19:13:46.094Z,98719.00
2019-05-02T19:15:53.419Z,98723.00
2019-05-02T19:17:58.788Z,98725.00
2019-05-02T19:20:06.236Z,98723.00
2019-05-02T19:22:13.186Z,98720.00
2019-05-02T19:24:18.400Z,98723.00
2019-05-02T19:26:23.847Z,98727.00
2019-05-02T19:28:38.489Z,98739.00
2019-05-02T19:30:44.123Z,98728.00
2019-05-02T19:32:49.587Z,98732.00
2019-05-02T19:34:57.757Z,98727.00
2019-05-02T19:37:03.113Z,98725.00
2019-05-02T19:39:10.593Z,98727.00
2019-05-02T19:41:16.145Z,98730.00
2019-05-02T19:43:23.083Z,98729.00
2019-05-02T19:45:28.643Z,98732.00
2019-05-02T19:47:33.709Z,98732.00
2019-05-02T19:49:38.907Z,98735.00
2019-05-02T19:51:45.076Z,98733.00
2019-05-02T19:53:53.406Z,98735.00
2019-05-02T19:56:01.257Z,98731.00
2019-05-02T19:58:06.460Z,98732.00
2019-05-02T20:00:12.193Z,98738.00
2019-05-02T20:02:17.793Z,98727.00
2019-05-02T20:04:23.562Z,98736.00
2019-05-02T20:06:28.738Z,98734.00
2019-05-02T20:08:34.356Z,98738.00
2019-05-02T20:10:39.593Z,98732.00
2019-05-02T20:12:48.378Z,98732.00
2019-05-02T20:14:52.080Z,98729.00
2019-05-02T20:17:02.078Z,98743.00
2019-05-02T20:19:07.318Z,98734.00
2019-05-02T20:21:27.238Z,98735.00
2019-05-02T20:23:31.585Z,98742.00
2019-05-02T20:25:38.953Z,98724.00
2019-05-02T20:27:42.271Z,98731.00
2019-05-02T20:29:47.450Z,98733.00
2019-05-02T20:31:52.716Z,98726.00
2019-05-02T20:33:58.135Z,98737.00
2019-05-02T20:36:03.707Z,98737.00
2019-05-02T20:38:11.136Z,98735.00
2019-05-02T20:40:31.999Z,98724.00
2019-05-02T20:42:37.600Z,98723.00
2019-05-02T20:44:43.145Z,98730.00
2019-05-02T20:46:48.648Z,98731.00
2019-05-02T20:48:53.851Z,98727.00
2019-05-02T20:50:59.713Z,98728.00
2019-05-02T20:53:05.139Z,98721.00
2019-05-02T20:55:12.282Z,98724.00
2019-05-02T20:57:17.579Z,98718.00
2019-05-02T20:59:22.838Z,98721.00
2019-05-02T21:01:28.366Z,98730.00
2019-05-02T21:03:33.559Z,98724.00
2019-05-02T21:06:05.082Z,98725.00
2019-05-02T21:08:29.467Z,98722.00
2019-05-02T21:10:37.778Z,98723.00
2019-05-02T21:12:43.109Z,98734.00
2019-05-02T21:14:48.310Z,98743.00
2019-05-02T21:16:53.480Z,98732.00
2019-05-02T21:18:58.672Z,98739.00
2019-05-02T21:21:05.115Z,98724.00
2019-05-02T21:23:10.547Z,98720.00
2019-05-02T21:25:17.051Z,98726.00
2019-05-02T21:27:22.562Z,98737.00
2019-05-02T21:29:28.047Z,98741.00
2019-05-02T21:31:34.019Z,98737.00
2019-05-02T21:33:42.527Z,98741.00
2019-05-02T21:35:47.375Z,98752.00
2019-05-02T21:37:52.636Z,98743.00
2019-05-02T21:39:58.144Z,98761.00
2019-05-02T21:42:03.331Z,98749.00
2019-05-02T21:44:08.421Z,98756.00
2019-05-02T21:46:13.656Z,98754.00
2019-05-02T21:48:19.159Z,98757.00
2019-05-02T21:50:42.731Z,98758.00
2019-05-02T21:53:19.654Z,98762.00
2019-05-02T21:55:42.830Z,98770.00
2019-05-02T21:57:48.128Z,98768.00
2019-05-02T21:59:53.789Z,98765.00
2019-05-02T22:02:02.261Z,98768.00
2019-05-02T22:04:07.096Z,98772.00
2019-05-02T22:06:12.425Z,98773.00
2019-05-02T22:08:17.593Z,98773.00
2019-05-02T22:10:22.792Z,98775.00
2019-05-02T22:12:27.937Z,98771.00
2019-05-02T22:14:33.225Z,98782.00
2019-05-02T22:16:38.411Z,98785.00
2019-05-02T22:18:43.536Z,98775.00
2019-05-02T22:20:48.999Z,98779.00
2019-05-02T22:22:54.072Z,98782.00
2019-05-02T22:24:59.084Z,98788.00
2019-05-02T22:27:04.254Z,98787.00
2019-05-02T22:29:09.723Z,98795.00
2019-05-02T22:31:14.995Z,98801.00
2019-05-02T22:33:22.178Z,98804.00
2019-05-02T22:35:27.751Z,98792.00
2019-05-02T22:37:32.959Z,98791.00
2019-05-02T22:40:03.635Z,98796.00
2019-05-02T22:42:08.885Z,98795.00
2019-05-02T22:44:14.194Z,98800.00
2019-05-02T22:46:38.576Z,98802.00
2019-05-02T22:48:44.081Z,98798.00
2019-05-02T22:50:49.567Z,98801.00
2019-05-02T22:52:54.620Z,98815.00
2019-05-02T22:55:00.020Z,98806.00
2019-05-02T22:57:05.825Z,98810.00
2019-05-02T22:59:11.021Z,98807.00
2019-05-02T23:01:16.187Z,98820.00
2019-05-02T23:03:24.198Z,98817.00
2019-05-02T23:05:29.108Z,98812.00
2019-05-02T23:07:34.568Z,98819.00
2019-05-02T23:09:43.433Z,98810.00
2019-05-02T23:11:47.549Z,98814.00
2019-05-02T23:13:52.998Z,98825.00
2019-05-02T23:15:58.390Z,98824.00
2019-05-02T23:18:03.564Z,98826.00
2019-05-02T23:20:08.750Z,98829.00
2019-05-02T23:22:13.926Z,98828.00
2019-05-02T23:24:39.407Z,98827.00
2019-05-02T23:27:03.715Z,98826.00
2019-05-02T23:29:09.851Z,98827.00
2019-05-02T23:31:14.956Z,98815.00
2019-05-02T23:33:23.418Z,98827.00
2019-05-02T23:35:27.827Z,98824.00
2019-05-02T23:37:32.923Z,98831.00
2019-05-02T23:39:38.630Z,98826.00
2019-05-02T23:41:43.803Z,98834.00
2019-05-02T23:43:49.326Z,98828.00
2019-05-02T23:45:54.804Z,98834.00
2019-05-02T23:48:02.022Z,98836.00
2019-05-02T23:50:07.542Z,98825.00
2019-05-02T23:52:12.944Z,98821.00
2019-05-02T23:54:18.692Z,98826.00
2019-05-02T23:56:24.135Z,98824.00
2019-05-02T23:58:29.165Z,98826.00
